Time;durP1;ratioP1;P1;durP2;ratioP2;P2;SDS_P1;SDS_P2;PMS_P1;PMS_P2;Temp;Humidity;BMP_temperature;BMP_pressure;BME280_temperature;BME280_humidity;BME280_pressure;Samples;Min_cycle;Max_cycle;Signal;HPM_P1;HPM_P2
2023/02/14 00:01:52;;;;;;;24.50;13.60;;;;;;;9.05;56.37;101440.05;108077;1287;21989;-61
2023/02/14 00:04:18;;;;;;;19.90;12.40;;;;;;;9.05;56.45;101431.83;108079;1284;21987;-65
2023/02/14 00:06:46;;;;;;;19.90;12.60;;;;;;;9.04;56.48;101431.30;108090;1287;22002;-66
2023/02/14 00:09:14;;;;;;;16.70;11.40;;;;;;;9.00;56.92;101432.13;108085;1287;21994;-61
2023/02/14 00:11:40;;;;;;;17.50;10.70;;;;;;;8.98;57.18;101435.26;108022;1288;22175;-66
2023/02/14 00:16:50;;;;;;;16.40;10.20;;;;;;;8.91;56.99;101438.52;108077;1287;22173;-66
2023/02/14 00:19:17;;;;;;;20.90;11.20;;;;;;;8.87;57.15;101436.35;108162;1287;21992;-65
2023/02/14 00:21:42;;;;;;;19.30;12.20;;;;;;;8.86;57.55;101440.89;108124;1287;21993;-62
2023/02/14 00:24:14;;;;;;;18.80;12.80;;;;;;;8.89;57.44;101435.31;108104;1287;22006;-61
2023/02/14 00:26:40;;;;;;;21.10;11.60;;;;;;;8.91;57.66;101432.88;108149;1287;21989;-65
2023/02/14 00:29:11;;;;;;;22.20;13.70;;;;;;;8.91;58.12;101428.70;108083;1287;21998;-65
2023/02/14 00:31:37;;;;;;;19.50;12.30;;;;;;;8.91;58.16;101418.19;108145;1288;21999;-61
2023/02/14 00:34:03;;;;;;;18.80;11.90;;;;;;;8.93;57.76;101411.56;107987;1288;21997;-61
2023/02/14 00:36:34;;;;;;;19.30;11.50;;;;;;;8.96;57.78;101406.87;108004;1288;22009;-61
2023/02/14 00:39:08;;;;;;;18.60;12.00;;;;;;;8.98;58.01;101398.67;108042;1275;22034;-64
2023/02/14 00:41:33;;;;;;;19.80;11.80;;;;;;;8.95;58.73;101394.61;108052;1288;21999;-61
2023/02/14 00:43:59;;;;;;;17.10;11.60;;;;;;;8.98;58.54;101390.10;108092;1287;21992;-65
2023/02/14 00:46:25;;;;;;;20.50;12.80;;;;;;;9.01;58.43;101388.02;108125;1286;21990;-65
2023/02/14 00:48:51;;;;;;;19.80;11.90;;;;;;;9.05;58.08;101386.66;108044;1283;22006;-61
2023/02/14 00:51:17;;;;;;;18.50;12.30;;;;;;;9.09;58.08;101382.14;108168;1288;22006;-64
2023/02/14 00:53:44;;;;;;;20.30;13.10;;;;;;;9.05;58.93;101381.23;107992;1288;22012;-61
2023/02/14 00:56:11;;;;;;;16.50;11.00;;;;;;;8.99;59.32;101372.06;107986;1288;21987;-65
2023/02/14 00:58:36;;;;;;;19.80;12.10;;;;;;;8.97;59.20;101370.11;108023;1288;21995;-62
2023/02/14 01:01:03;;;;;;;19.90;12.70;;;;;;;8.91;59.41;101366.90;108009;1288;21987;-65
2023/02/14 01:03:30;;;;;;;18.40;11.00;;;;;;;8.87;59.49;101358.80;108031;1288;21996;-61
2023/02/14 01:05:55;;;;;;;16.80;11.50;;;;;;;8.90;59.28;101359.02;107998;1277;21992;-66
2023/02/14 01:08:21;;;;;;;17.80;11.10;;;;;;;8.92;59.11;101359.91;108063;1288;21999;-66
2023/02/14 01:10:47;;;;;;;19.40;11.10;;;;;;;8.91;58.99;101355.35;108124;1287;22010;-62
2023/02/14 01:13:13;;;;;;;17.40;11.20;;;;;;;8.91;58.83;101350.27;108092;1287;21998;-62
2023/02/14 01:15:41;;;;;;;18.70;11.30;;;;;;;8.89;59.26;101344.31;108074;1287;22002;-66
2023/02/14 01:18:07;;;;;;;17.30;11.10;;;;;;;8.92;59.10;101342.59;108136;1287;21996;-66
2023/02/14 01:20:33;;;;;;;17.10;10.90;;;;;;;8.94;58.95;101339.45;108045;1288;22008;-62
2023/02/14 01:23:00;;;;;;;18.40;11.10;;;;;;;8.95;58.88;101334.73;107883;1288;22028;-66
2023/02/14 01:25:26;;;;;;;17.60;11.20;;;;;;;8.98;58.48;101334.23;108024;1288;21959;-66
2023/02/14 01:27:53;;;;;;;15.10;9.30;;;;;;;9.00;58.68;101335.84;108022;1288;22001;-62
2023/02/14 01:30:19;;;;;;;17.30;10.70;;;;;;;9.04;58.66;101330.80;108042;1288;22027;-62
2023/02/14 01:32:45;;;;;;;16.10;10.30;;;;;;;9.06;58.66;101320.14;107996;1286;22458;-63
2023/02/14 01:35:16;;;;;;;17.00;10.00;;;;;;;9.07;58.67;101311.21;108034;1288;21988;-62
2023/02/14 01:37:47;;;;;;;16.20;10.30;;;;;;;9.05;59.20;101310.33;107992;1287;22007;-66
2023/02/14 01:40:13;;;;;;;18.50;10.60;;;;;;;9.00;59.66;101298.20;107996;1287;21990;-66
2023/02/14 01:42:40;;;;;;;14.90;9.70;;;;;;;8.95;59.95;101295.35;108015;1287;21985;-67
2023/02/14 01:45:25;;;;;;;15.10;9.80;;;;;;;8.92;60.22;101296.73;108099;1287;23056;-66
2023/02/14 01:47:52;;;;;;;15.40;9.80;;;;;;;8.93;59.72;101293.23;108165;1287;21990;-64
2023/02/14 01:50:24;;;;;;;13.90;8.90;;;;;;;8.92;59.63;101287.45;108139;1287;22028;-66
2023/02/14 01:53:05;;;;;;;14.90;8.80;;;;;;;8.92;59.92;101282.38;108149;1287;21994;-60
2023/02/14 01:55:32;;;;;;;16.00;9.90;;;;;;;8.93;59.83;101279.94;107891;1287;22002;-60
2023/02/14 01:58:05;;;;;;;;;;;;;;;8.97;59.41;101282.77;108105;1287;21984;-60
2023/02/14 02:03:16;;;;;;;13.30;9.10;;;;;;;8.99;59.37;101271.58;108088;1287;22000;-65
2023/02/14 02:05:46;;;;;;;16.90;9.80;;;;;;;9.01;59.69;101268.80;107989;1287;21999;-60
2023/02/14 02:08:17;;;;;;;15.70;9.90;;;;;;;8.94;61.03;101267.33;108087;1287;21961;-60
2023/02/14 02:10:45;;;;;;;15.90;9.80;;;;;;;9.01;60.41;101263.89;107833;1287;21999;-64
2023/02/14 02:13:18;;;;;;;15.60;9.20;;;;;;;9.06;60.06;101258.68;108000;1288;21956;-61
2023/02/14 02:15:55;;;;;;;14.90;8.60;;;;;;;9.02;60.09;101259.36;107889;1276;21980;-61
2023/02/14 02:18:27;;;;;;;15.30;9.80;;;;;;;8.97;61.17;101255.45;107987;1288;22060;-64
2023/02/14 02:21:05;;;;;;;15.30;9.40;;;;;;;9.05;60.78;101243.27;108042;1287;22003;-59
2023/02/14 02:23:49;;;;;;;14.70;9.70;;;;;;;9.11;60.59;101243.48;108094;1286;21963;-64
2023/02/14 02:26:19;;;;;;;13.70;8.70;;;;;;;9.21;59.80;101255.48;108100;1288;21997;-60
2023/02/14 02:28:45;;;;;;;15.40;9.00;;;;;;;9.28;59.66;101259.73;108109;1288;21999;-60
2023/02/14 02:31:24;;;;;;;16.20;10.00;;;;;;;9.34;59.31;101257.66;108106;1287;21995;-64
2023/02/14 02:34:14;;;;;;;15.80;9.30;;;;;;;9.36;59.37;101255.05;108079;1288;21992;-63
2023/02/14 02:36:40;;;;;;;;;;;;;;;9.37;59.56;101253.13;108096;1282;21967;-64
2023/02/14 02:39:27;;;;;;;15.40;9.70;;;;;;;9.37;59.61;101249.62;108099;1281;22012;-64
2023/02/14 02:42:40;;;;;;;13.30;8.80;;;;;;;9.40;59.30;101252.45;107977;1283;21993;-64
2023/02/14 02:45:19;;;;;;;17.80;9.30;;;;;;;9.45;58.97;101250.56;107366;1296;22015;-60
2023/02/14 02:48:19;;;;;;;15.20;9.00;;;;;;;9.45;59.23;101234.80;107949;1288;21993;-66
2023/02/14 02:53:38;;;;;;;15.50;10.00;;;;;;;9.52;58.59;101225.36;108084;1287;22012;-62
2023/02/14 02:59:20;;;;;;;14.70;7.90;;;;;;;9.54;58.18;101210.48;108086;1287;21998;-66
2023/02/14 03:01:54;;;;;;;13.20;8.40;;;;;;;9.53;58.24;101203.46;108075;1288;22148;-62
2023/02/14 03:07:33;;;;;;;12.80;8.60;;;;;;;9.52;58.00;101205.39;107917;1287;21997;-66
2023/02/14 03:09:51;;;;;;;13.70;8.50;;;;;;;9.54;57.97;101205.04;107783;1288;22768;-62
2023/02/14 03:12:32;;;;;;;14.40;9.00;;;;;;;9.52;58.32;101195.58;108015;1288;22025;-66
2023/02/14 03:15:00;;;;;;;13.60;8.90;;;;;;;9.55;58.41;101196.11;108000;1288;21994;-65
2023/02/14 03:17:52;;;;;;;13.80;7.90;;;;;;;9.55;58.44;101199.63;108015;1288;22003;-66
2023/02/14 03:20:48;;;;;;;14.30;7.90;;;;;;;9.60;58.11;101197.02;108063;1288;21989;-62
2023/02/14 03:23:42;;;;;;;13.30;7.90;;;;;;;9.62;58.09;101192.83;108142;1288;22032;-66
2023/02/14 03:26:21;;;;;;;11.80;7.90;;;;;;;9.66;57.72;101190.92;107965;1288;21999;-66
2023/02/14 03:28:47;;;;;;;15.10;8.60;;;;;;;9.66;57.71;101195.65;108209;1285;22030;-62
2023/02/14 03:31:16;;;;;;;12.30;7.70;;;;;;;9.67;57.61;101194.09;107341;1288;1002856;-65
2023/02/14 03:34:03;;;;;;;12.40;7.70;;;;;;;9.66;57.53;101189.36;108088;1287;22060;-62
2023/02/14 03:36:41;;;;;;;12.10;7.40;;;;;;;9.67;57.65;101189.35;108056;1288;21990;-62
2023/02/14 03:39:09;;;;;;;11.60;7.50;;;;;;;9.64;58.09;101188.63;108034;1288;22001;-62
2023/02/14 03:41:37;;;;;;;12.40;7.70;;;;;;;9.69;57.62;101194.09;108030;1288;21990;-62
2023/02/14 03:44:04;;;;;;;12.50;7.40;;;;;;;9.70;57.56;101195.67;108033;1287;21992;-64
2023/02/14 03:46:44;;;;;;;13.40;7.60;;;;;;;9.64;58.09;101195.64;108110;1288;23685;-66
2023/02/14 03:49:13;;;;;;;12.80;6.90;;;;;;;9.61;58.47;101188.63;107910;1288;21990;-64
2023/02/14 03:51:41;;;;;;;11.50;7.20;;;;;;;9.64;58.19;101179.53;108058;1288;21992;-64
2023/02/14 03:54:08;;;;;;;13.50;7.90;;;;;;;9.58;58.74;101177.55;107884;1288;23764;-60
2023/02/14 03:56:36;;;;;;;9.80;7.00;;;;;;;9.47;59.27;101179.96;107861;1288;23089;-66
2023/02/14 03:59:15;;;;;;;11.00;7.10;;;;;;;9.53;59.15;101177.02;108009;1288;21992;-66
2023/02/14 04:01:49;;;;;;;10.70;6.50;;;;;;;9.64;58.33;101181.63;108047;1288;23714;-62
2023/02/14 04:04:17;;;;;;;9.90;7.00;;;;;;;9.64;58.47;101183.55;108038;1288;22690;-64
2023/02/14 04:06:43;;;;;;;12.70;7.80;;;;;;;9.64;58.30;101179.16;108035;1288;22175;-62
2023/02/14 04:09:09;;;;;;;11.80;7.50;;;;;;;9.70;57.87;101179.19;107992;1283;22024;-64
2023/02/14 04:11:40;;;;;;;12.30;7.20;;;;;;;9.71;57.62;101185.33;107989;1288;21985;-64
2023/02/14 04:14:06;;;;;;;9.90;6.40;;;;;;;9.67;57.86;101181.81;107926;1287;22466;-64
2023/02/14 04:19:21;;;;;;;9.90;6.60;;;;;;;9.70;57.59;101175.52;107237;1276;1002506;-65
2023/02/14 04:19:22;;;;;;;11.40;7.40;;;;;;;9.66;57.94;101175.15;107984;1285;21995;-60
2023/02/14 04:21:48;;;;;;;12.60;7.70;;;;;;;9.68;57.78;101176.20;107997;1287;21990;-65
2023/02/14 04:24:14;;;;;;;10.10;6.70;;;;;;;9.68;57.90;101169.55;108087;1287;22230;-59
2023/02/14 04:26:52;;;;;;;10.40;6.60;;;;;;;9.68;58.03;101160.97;108077;1287;22002;-64
2023/02/14 04:29:19;;;;;;;11.40;8.00;;;;;;;9.64;58.30;101159.02;108012;1287;21996;-65
2023/02/14 04:31:46;;;;;;;10.80;6.90;;;;;;;9.67;58.33;101159.39;108016;1275;22184;-61
2023/02/14 04:34:11;;;;;;;12.10;7.40;;;;;;;9.63;58.91;101160.94;108023;1287;22002;-64
2023/02/14 04:36:37;;;;;;;11.30;6.80;;;;;;;9.69;58.31;101152.38;108005;1287;24125;-65
2023/02/14 04:39:03;;;;;;;11.50;7.40;;;;;;;9.74;58.19;101148.35;108072;1287;22007;-64
2023/02/14 04:41:29;;;;;;;11.00;7.30;;;;;;;9.71;58.39;101149.23;108010;1288;21987;-65
2023/02/14 04:43:55;;;;;;;9.70;7.10;;;;;;;9.70;58.77;101152.91;107986;1276;21990;-65
2023/02/14 04:46:21;;;;;;;12.50;8.10;;;;;;;9.62;59.62;101149.02;107975;1288;21998;-60
2023/02/14 04:48:47;;;;;;;11.60;7.40;;;;;;;9.61;59.64;101145.16;107990;1287;22219;-60
2023/02/14 04:51:13;;;;;;;13.00;7.80;;;;;;;9.60;59.87;101142.00;108004;1287;21994;-60
2023/02/14 04:53:39;;;;;;;11.50;7.20;;;;;;;9.62;59.52;101148.15;107972;1284;22159;-60
2023/02/14 04:56:06;;;;;;;11.80;7.30;;;;;;;9.61;59.45;101142.88;107968;1288;22186;-60
2023/02/14 04:58:32;;;;;;;11.50;7.60;;;;;;;9.58;59.96;101146.55;108056;1288;22000;-65
2023/02/14 05:00:57;;;;;;;13.60;7.50;;;;;;;9.51;60.71;101142.66;107980;1287;22090;-60
2023/02/14 05:03:24;;;;;;;13.10;8.00;;;;;;;9.55;60.72;101132.86;107995;1288;22217;-60
2023/02/14 05:05:49;;;;;;;12.90;8.50;;;;;;;9.56;60.82;101126.21;107264;1287;1003139;-64
2023/02/14 05:08:15;;;;;;;10.80;7.30;;;;;;;9.54;60.89;101131.81;107990;1275;22194;-65
2023/02/14 05:10:41;;;;;;;13.50;8.00;;;;;;;9.48;61.52;101135.48;107250;1288;1002615;-61
2023/02/14 05:13:07;;;;;;;14.20;8.40;;;;;;;9.58;60.83;101133.06;107982;1275;21994;-65
2023/02/14 05:15:33;;;;;;;10.40;7.10;;;;;;;9.62;60.38;101131.50;108038;1288;21980;-61
2023/02/14 05:18:01;;;;;;;10.80;7.50;;;;;;;9.63;60.41;101126.95;107973;1275;22006;-65
2023/02/14 05:20:28;;;;;;;12.10;8.10;;;;;;;9.67;60.13;101127.50;108076;1288;21995;-61
2023/02/14 05:22:54;;;;;;;11.80;7.90;;;;;;;9.65;60.51;101124.86;108019;1284;21990;-65
2023/02/14 05:25:19;;;;;;;10.90;7.30;;;;;;;9.70;60.47;101122.59;108056;1288;22014;-61
2023/02/14 05:27:45;;;;;;;13.00;7.50;;;;;;;9.67;60.97;101128.02;108031;1288;22006;-63
2023/02/14 05:30:12;;;;;;;12.40;7.90;;;;;;;9.67;60.71;101133.45;108075;1282;22022;-62
2023/02/14 05:32:37;;;;;;;15.80;7.50;;;;;;;9.72;60.66;101139.59;107323;1288;1002885;-64
2023/02/14 05:35:04;;;;;;;12.70;7.90;;;;;;;9.77;60.27;101137.34;108032;1288;22002;-64
2023/02/14 05:37:30;;;;;;;11.60;8.00;;;;;;;9.77;60.51;101132.07;108002;1288;22040;-61
2023/02/14 05:39:55;;;;;;;15.00;7.80;;;;;;;9.75;60.54;101132.60;107838;1288;21998;-63
2023/02/14 05:42:21;;;;;;;13.20;7.40;;;;;;;9.72;61.13;101128.20;107258;1275;1002438;-64
2023/02/14 05:44:47;;;;;;;11.60;7.90;;;;;;;9.69;61.46;101121.89;107996;1286;22024;-66
2023/02/14 05:47:14;;;;;;;12.10;7.40;;;;;;;9.57;62.99;101121.84;108064;1288;22083;-62
2023/02/14 05:49:40;;;;;;;12.00;7.60;;;;;;;9.49;64.23;101121.63;108009;1288;21990;-65
2023/02/14 05:52:07;;;;;;;12.30;7.60;;;;;;;9.53;64.09;101128.66;108003;1288;22188;-66
2023/02/14 05:54:33;;;;;;;11.60;7.90;;;;;;;9.59;63.67;101131.14;108022;1288;21992;-61
2023/02/14 05:56:59;;;;;;;12.00;7.50;;;;;;;9.68;63.25;101133.45;108002;1288;21999;-62
2023/02/14 05:59:25;;;;;;;12.70;8.50;;;;;;;9.58;64.65;101130.24;107941;1286;21987;-66
2023/02/14 06:01:50;;;;;;;12.40;8.00;;;;;;;9.72;63.34;101124.16;107844;1288;21985;-66
2023/02/14 06:04:16;;;;;;;11.80;8.60;;;;;;;9.78;62.83;101117.35;107997;1283;21986;-66
2023/02/14 06:06:42;;;;;;;15.10;8.50;;;;;;;9.76;62.96;101108.59;108010;1288;22469;-66
2023/02/14 06:09:08;;;;;;;12.60;9.50;;;;;;;9.85;62.37;101107.20;108019;1288;21995;-61
2023/02/14 06:11:34;;;;;;;12.40;8.40;;;;;;;9.86;62.19;101106.85;108023;1275;21998;-66
2023/02/14 06:14:00;;;;;;;12.60;8.10;;;;;;;9.87;62.29;101111.59;108025;1287;21990;-61
2023/02/14 06:16:26;;;;;;;15.20;9.20;;;;;;;9.78;63.34;101115.08;107933;1287;21994;-66
2023/02/14 06:18:52;;;;;;;13.50;8.70;;;;;;;9.84;62.90;101113.16;108068;1288;22037;-65
2023/02/14 06:21:19;;;;;;;16.50;10.30;;;;;;;9.87;62.87;101104.94;107985;1287;21990;-66
2023/02/14 06:23:45;;;;;;;15.60;9.70;;;;;;;9.93;62.28;101094.42;107987;1287;21994;-61
2023/02/14 06:26:11;;;;;;;17.10;10.20;;;;;;;9.93;62.54;101097.77;107968;1288;22225;-61
2023/02/14 06:28:37;;;;;;;15.90;10.90;;;;;;;9.95;62.31;101098.45;108044;1287;21999;-61
2023/02/14 06:31:03;;;;;;;13.30;9.00;;;;;;;10.02;61.71;101097.07;107981;1287;22010;-61
2023/02/14 06:33:29;;;;;;;13.50;8.80;;;;;;;10.01;62.07;101100.05;108003;1280;21999;-62
2023/02/14 06:35:54;;;;;;;13.60;9.40;;;;;;;9.99;62.40;101093.73;108123;1283;21997;-62
2023/02/14 06:38:20;;;;;;;16.40;9.60;;;;;;;10.01;62.35;101082.69;108022;1287;21998;-61
2023/02/14 06:40:48;;;;;;;16.50;9.70;;;;;;;10.07;61.95;101080.95;108068;1276;22019;-66
2023/02/14 06:43:13;;;;;;;13.60;9.30;;;;;;;10.05;61.98;101078.14;108016;1287;22059;-62
2023/02/14 06:45:42;;;;;;;12.70;8.30;;;;;;;10.05;61.98;101084.63;108008;1287;21999;-62
2023/02/14 06:48:08;;;;;;;12.20;8.60;;;;;;;10.06;61.90;101086.03;108077;1287;21988;-61
2023/02/14 06:50:34;;;;;;;13.30;8.60;;;;;;;9.84;63.88;101080.73;108005;1287;21993;-66
2023/02/14 06:53:00;;;;;;;13.20;8.20;;;;;;;9.94;63.52;101084.96;107962;1287;21986;-61
2023/02/14 06:55:26;;;;;;;13.90;9.40;;;;;;;10.04;62.66;101080.07;108055;1288;21996;-66
2023/02/14 06:57:53;;;;;;;16.10;9.90;;;;;;;10.07;62.39;101075.86;107993;1288;23657;-61
2023/02/14 07:00:19;;;;;;;12.20;8.20;;;;;;;10.13;61.79;101083.77;108036;1288;21992;-66
2023/02/14 07:02:47;;;;;;;10.30;7.30;;;;;;;10.12;62.36;101090.59;108051;1288;21998;-63
2023/02/14 07:05:17;;;;;;;11.80;7.50;;;;;;;10.17;62.04;101086.39;107756;1287;290648;-67
2023/02/14 07:07:44;;;;;;;10.80;7.70;;;;;;;10.27;61.64;101081.66;108224;1283;21996;-63
2023/02/14 07:10:10;;;;;;;11.70;8.20;;;;;;;10.07;62.70;101096.36;108124;1287;21992;-66
2023/02/14 07:12:38;;;;;;;11.20;7.90;;;;;;;10.11;62.56;101098.83;108029;1287;22083;-66
2023/02/14 07:15:06;;;;;;;13.90;8.10;;;;;;;10.13;62.59;101096.20;108072;1288;21999;-62
2023/02/14 07:17:33;;;;;;;10.10;7.00;;;;;;;10.16;62.17;101089.02;108124;1288;22005;-65
2023/02/14 07:19:58;;;;;;;12.40;8.00;;;;;;;10.20;61.95;101093.77;108131;1276;22002;-63
2023/02/14 07:22:24;;;;;;;13.00;7.70;;;;;;;10.32;61.13;101087.46;108113;1287;22004;-67
2023/02/14 07:24:51;;;;;;;9.70;6.80;;;;;;;10.31;61.60;101097.28;107928;1285;22003;-62
2023/02/14 07:27:16;;;;;;;11.00;7.80;;;;;;;10.12;63.20;101103.75;108054;1287;21995;-62
2023/02/14 07:29:42;;;;;;;13.20;7.70;;;;;;;10.14;62.89;101100.08;108566;1288;21937;-63
2023/02/14 07:32:11;;;;;;;9.80;7.10;;;;;;;10.21;62.78;101093.77;108061;1286;21994;-66
2023/02/14 07:34:37;;;;;;;10.40;7.10;;;;;;;10.14;63.27;101091.83;108026;1276;21996;-61
2023/02/14 07:37:04;;;;;;;10.50;7.40;;;;;;;10.19;63.51;101093.41;108102;1276;22086;-63
2023/02/14 07:39:30;;;;;;;10.20;7.20;;;;;;;9.95;65.45;101098.11;108168;1287;21992;-66
2023/02/14 07:41:55;;;;;;;10.20;6.50;;;;;;;10.05;65.17;101097.95;108087;1287;22088;-66
2023/02/14 07:44:22;;;;;;;11.00;6.80;;;;;;;9.95;66.75;101091.81;108157;1275;22001;-61
2023/02/14 07:46:48;;;;;;;9.80;7.00;;;;;;;9.98;66.86;101090.58;108076;1287;22003;-66
2023/02/14 07:49:14;;;;;;;10.90;7.30;;;;;;;10.03;66.26;101090.41;107950;1287;23630;-62
2023/02/14 07:51:41;;;;;;;10.80;6.90;;;;;;;9.97;66.63;101093.39;107974;1288;21999;-66
2023/02/14 07:54:10;;;;;;;8.40;6.10;;;;;;;9.95;67.16;101096.52;107278;1288;1002930;-67
2023/02/14 07:56:36;;;;;;;8.10;6.00;;;;;;;9.93;66.87;101096.70;108020;1287;22033;-67
2023/02/14 07:59:02;;;;;;;8.10;6.10;;;;;;;9.92;66.98;101093.72;107993;1287;22031;-66
2023/02/14 08:01:30;;;;;;;10.00;6.70;;;;;;;9.91;67.74;101092.33;107973;1286;23054;-66
2023/02/14 08:03:57;;;;;;;11.70;7.00;;;;;;;9.99;66.65;101096.71;108001;1288;22004;-67
2023/02/14 08:06:24;;;;;;;8.40;5.80;;;;;;;9.97;66.89;101098.28;108009;1280;22006;-66
2023/02/14 08:08:50;;;;;;;8.50;6.00;;;;;;;10.02;66.71;101102.67;108042;1287;21992;-61
2023/02/14 08:14:08;;;;;;;8.10;6.30;;;;;;;9.98;67.62;101091.80;108024;1287;23710;-61
2023/02/14 08:16:34;;;;;;;7.60;5.70;;;;;;;9.88;68.84;101088.09;108004;1287;21993;-62
2023/02/14 08:19:00;;;;;;;7.90;5.20;;;;;;;9.92;68.50;101085.64;108044;1288;21993;-65
2023/02/14 08:21:27;;;;;;;8.80;6.10;;;;;;;10.05;67.39;101085.33;108108;1287;22034;-61
2023/02/14 08:23:54;;;;;;;8.60;5.70;;;;;;;10.06;67.75;101089.72;108083;1287;22454;-60
2023/02/14 08:26:20;;;;;;;9.80;6.00;;;;;;;10.10;67.85;101092.70;107988;1280;22000;-66
2023/02/14 08:28:45;;;;;;;10.30;6.00;;;;;;;10.03;69.50;101088.14;108045;1287;22459;-66
2023/02/14 08:31:11;;;;;;;8.60;5.80;;;;;;;10.04;70.32;101086.38;108203;1287;22025;-68
2023/02/14 08:33:37;;;;;;;8.90;5.70;;;;;;;10.08;70.35;101087.27;108115;1286;21992;-61
2023/02/14 08:36:03;;;;;;;7.70;5.70;;;;;;;10.05;71.31;101096.73;108011;1287;22000;-61
2023/02/14 08:38:29;;;;;;;8.50;5.40;;;;;;;10.13;70.80;101092.70;108021;1287;22017;-61
2023/02/14 08:41:00;;;;;;;9.20;6.00;;;;;;;10.17;70.57;101081.83;107974;1287;21994;-60
2023/02/14 08:43:26;;;;;;;8.60;6.40;;;;;;;10.19;70.98;101077.80;108079;1287;22031;-60
2023/02/14 08:45:52;;;;;;;9.50;6.40;;;;;;;10.15;72.39;101082.52;108001;1287;21992;-61
2023/02/14 08:48:18;;;;;;;7.50;5.70;;;;;;;10.10;73.62;101081.30;108091;1275;21996;-61
2023/02/14 08:50:46;;;;;;;8.10;6.40;;;;;;;10.22;72.54;101078.14;107853;1276;22010;-61
2023/02/14 08:53:13;;;;;;;8.60;5.90;;;;;;;10.32;72.26;101078.67;107982;1287;21991;-70
2023/02/14 08:55:39;;;;;;;10.10;6.50;;;;;;;10.37;72.89;101076.23;107987;1287;24177;-61
2023/02/14 08:58:05;;;;;;;9.20;7.00;;;;;;;10.48;73.20;101076.61;108001;1283;22196;-62
2023/02/14 09:00:32;;;;;;;11.40;6.70;;;;;;;10.49;73.87;101075.73;108057;1287;22001;-61
2023/02/14 09:02:59;;;;;;;9.40;6.50;;;;;;;10.61;74.15;101074.13;108121;1283;21986;-69
2023/02/14 09:05:25;;;;;;;9.10;6.90;;;;;;;10.65;75.26;101067.10;108101;1287;22004;-61
2023/02/14 09:07:51;;;;;;;10.10;6.80;;;;;;;10.64;74.70;101060.25;108066;1287;21997;-68
2023/02/14 09:10:23;;;;;;;9.30;6.30;;;;;;;10.79;73.37;101062.16;108102;1287;21991;-61
2023/02/14 09:12:48;;;;;;;8.00;5.50;;;;;;;10.82;72.89;101058.29;108039;1287;22002;-68
2023/02/14 09:15:14;;;;;;;8.60;6.30;;;;;;;10.85;72.71;101055.48;108038;1287;21993;-68
2023/02/14 09:17:41;;;;;;;7.70;5.30;;;;;;;10.83;72.99;101053.02;107978;1288;21998;-61
2023/02/14 09:20:08;;;;;;;7.90;5.50;;;;;;;10.82;72.56;101055.13;108034;1287;22455;-67
2023/02/14 09:22:35;;;;;;;6.70;4.90;;;;;;;10.92;71.85;101053.35;108147;1287;23616;-68
2023/02/14 09:25:01;;;;;;;8.20;6.00;;;;;;;10.92;72.07;101048.95;108035;1287;21993;-61
2023/02/14 09:27:27;;;;;;;9.40;5.20;;;;;;;10.92;71.80;101044.58;108026;1287;21992;-63
2023/02/14 09:29:53;;;;;;;9.00;6.00;;;;;;;10.82;72.21;101047.40;108150;1287;22028;-67
2023/02/14 09:32:19;;;;;;;8.10;5.60;;;;;;;10.90;71.49;101036.34;107988;1288;23737;-63
2023/02/14 09:34:45;;;;;;;7.90;5.90;;;;;;;10.98;69.84;101032.61;108026;1288;22766;-68
2023/02/14 09:39:55;;;;;;;7.00;5.40;;;;;;;10.87;71.09;101035.27;105050;1287;1002980;-63
2023/02/14 09:42:33;;;;;;;8.10;4.70;;;;;;;11.00;70.11;101032.77;108017;1283;21995;-64
2023/02/14 09:45:01;;;;;;;8.60;5.10;;;;;;;11.07;69.88;101034.67;108147;1288;21993;-64
2023/02/14 09:47:27;;;;;;;7.20;4.80;;;;;;;11.07;68.51;101033.80;107861;1288;22080;-68
2023/02/14 09:49:53;;;;;;;7.00;5.10;;;;;;;11.08;67.87;101025.19;108019;1283;21998;-67
2023/02/14 09:52:21;;;;;;;6.80;4.50;;;;;;;11.08;67.14;101016.59;107934;1288;21993;-68
2023/02/14 09:54:50;;;;;;;7.80;4.60;;;;;;;10.98;66.88;101011.36;107862;1287;21993;-68
2023/02/14 09:57:37;;;;;;;6.50;4.40;;;;;;;10.93;66.41;101007.69;109039;1284;22112;-63
2023/02/14 10:00:31;;;;;;;8.80;4.70;;;;;;;10.94;65.92;101007.34;107943;1288;21995;-62
2023/02/14 10:03:28;;;;;;;7.50;4.60;;;;;;;11.06;65.31;101006.59;107982;1287;21992;-67
2023/02/14 10:06:22;;;;;;;7.20;5.20;;;;;;;11.06;65.00;101005.17;108055;1284;21993;-63
2023/02/14 10:09:17;;;;;;;8.10;4.50;;;;;;;10.85;65.03;101004.56;107991;1287;21993;-63
2023/02/14 10:11:44;;;;;;;7.10;4.20;;;;;;;10.92;64.87;101002.27;108020;1288;21988;-63
2023/02/14 10:14:13;;;;;;;8.30;4.50;;;;;;;11.03;64.84;101005.02;107898;1287;22020;-64
2023/02/14 10:16:46;;;;;;;8.20;5.30;;;;;;;10.97;65.44;101004.86;108096;1288;21993;-63
2023/02/14 10:19:22;;;;;;;8.10;4.90;;;;;;;11.02;65.29;101001.16;107899;1285;22058;-67
2023/02/14 10:21:55;;;;;;;7.80;5.10;;;;;;;11.04;65.73;101003.78;108015;1283;22002;-63
2023/02/14 10:24:32;;;;;;;9.90;4.90;;;;;;;11.15;65.23;101004.61;108176;1287;21993;-68
2023/02/14 10:27:35;;;;;;;12.80;6.00;;;;;;;11.22;64.90;101002.65;107898;1288;21994;-67
2023/02/14 10:30:02;;;;;;;6.00;4.00;;;;;;;11.26;63.83;100995.08;107611;1288;22002;-69
2023/02/14 10:32:34;;;;;;;7.00;4.10;;;;;;;11.30;62.84;100991.02;107893;1287;21996;-64
2023/02/14 10:35:00;;;;;;;6.80;4.00;;;;;;;11.35;62.08;100991.34;107830;1288;21991;-67
2023/02/14 10:37:48;;;;;;;7.40;4.40;;;;;;;11.34;61.78;100988.00;107725;1288;21999;-68
2023/02/14 10:40:26;;;;;;;9.90;5.40;;;;;;;11.40;61.67;100987.62;108093;1288;21997;-64
2023/02/14 10:43:09;;;;;;;8.70;5.20;;;;;;;11.38;62.55;100992.38;108103;1285;22004;-63
2023/02/14 10:45:44;;;;;;;10.20;6.20;;;;;;;11.45;64.09;100991.98;107931;1287;22005;-69
2023/02/14 10:48:25;;;;;;;9.20;5.50;;;;;;;11.42;65.30;100995.52;108025;1288;22001;-61
2023/02/14 10:50:52;;;;;;;;;;;;;;;11.32;66.96;101005.94;108051;1281;22040;-61
2023/02/14 10:53:58;;;;;;;8.10;4.50;;;;;;;11.13;67.73;101015.69;108060;1287;22000;-71
2023/02/14 10:56:32;;;;;;;4.60;2.60;;;;;;;11.01;65.76;101024.35;108016;1288;21998;-70
2023/02/14 10:58:58;;;;;;;3.30;2.00;;;;;;;10.78;64.49;101020.38;107912;1288;21997;-60
2023/02/14 11:01:23;;;;;;;4.60;2.20;;;;;;;10.53;64.44;101022.55;104039;1287;1002667;-61
2023/02/14 11:04:02;;;;;;;3.60;1.60;;;;;;;10.40;64.28;101028.68;107760;1286;21987;-61
2023/02/14 11:06:29;;;;;;;3.00;1.30;;;;;;;10.24;64.56;101028.51;108029;1288;23732;-61
2023/02/14 11:08:55;;;;;;;2.70;1.40;;;;;;;10.04;64.59;101023.25;108034;1288;21994;-61
2023/02/14 11:11:41;;;;;;;3.70;1.70;;;;;;;9.83;64.93;101026.21;108006;1288;21996;-61
2023/02/14 11:14:30;;;;;;;2.90;1.60;;;;;;;9.77;65.98;101040.58;108017;1288;22156;-62
2023/02/14 11:16:57;;;;;;;3.10;1.50;;;;;;;9.72;66.44;101040.05;108094;1288;22161;-70
2023/02/14 11:19:28;;;;;;;3.20;2.00;;;;;;;9.65;66.68;101016.04;108028;1288;21999;-69
2023/02/14 11:21:55;;;;;;;5.10;3.00;;;;;;;9.56;68.62;100999.71;108024;1288;22002;-61
2023/02/14 11:24:25;;;;;;;7.00;3.40;;;;;;;9.58;69.88;100992.02;107981;1287;21987;-70
2023/02/14 11:26:54;;;;;;;5.30;3.20;;;;;;;9.74;71.50;100974.50;107993;1285;21992;-62
2023/02/14 11:29:28;;;;;;;5.50;3.20;;;;;;;9.83;72.02;100974.69;108054;1288;22000;-70
2023/02/14 11:31:56;;;;;;;5.00;2.90;;;;;;;10.06;72.12;100971.18;107885;1288;22592;-70
2023/02/14 11:34:38;;;;;;;6.20;3.30;;;;;;;10.29;71.57;100970.27;107947;1288;22084;-61
2023/02/14 11:37:21;;;;;;;5.80;3.80;;;;;;;10.49;72.27;100966.41;107971;1287;21998;-61
2023/02/14 11:39:46;;;;;;;6.30;3.50;;;;;;;10.66;72.07;100966.17;107980;1288;23728;-70
2023/02/14 11:42:12;;;;;;;5.40;3.70;;;;;;;10.85;70.35;100967.17;107813;1288;21990;-62
2023/02/14 11:44:42;;;;;;;5.50;3.70;;;;;;;10.90;68.74;100962.40;108043;1287;21998;-61
2023/02/14 11:47:18;;;;;;;4.80;3.20;;;;;;;10.94;67.18;100954.85;107902;1287;22169;-70
2023/02/14 11:50:15;;;;;;;8.50;4.70;;;;;;;11.02;65.68;100953.23;108041;1288;21992;-61